Time;durP1;ratioP1;P1;durP2;ratioP2;P2;SDS_P1;SDS_P2;PMS_P1;PMS_P2;Temp;Humidity;BMP_temperature;BMP_pressure;BME280_temperature;BME280_humidity;BME280_pressure;Samples;Min_cycle;Max_cycle;Signal;HPM_P1;HPM_P2
2024/01/03 00:00:28;;;;;;;0.70;0.70;;;8.70;99.90;;;;;;5017015;28;20182;-83
2024/01/03 00:02:55;;;;;;;1.00;0.70;;;8.70;99.90;;;;;;5017314;28;20232;-83
2024/01/03 00:05:23;;;;;;;1.17;0.60;;;8.70;99.90;;;;;;5015442;28;20580;-83
2024/01/03 00:07:49;;;;;;;0.70;0.70;;;8.70;99.90;;;;;;5016989;28;20218;-83
2024/01/03 00:10:46;;;;;;;0.63;0.63;;;8.70;99.90;;;;;;5016789;28;20242;-82
2024/01/03 00:13:33;;;;;;;0.60;0.60;;;8.70;99.90;;;;;;5016890;28;20180;-82
2024/01/03 00:16:01;;;;;;;0.57;0.57;;;8.70;99.90;;;;;;5016791;28;20655;-83
2024/01/03 00:18:33;;;;;;;1.10;0.60;;;8.70;99.90;;;;;;5016969;28;20224;-83
2024/01/03 00:20:59;;;;;;;0.60;0.60;;;8.70;99.90;;;;;;5015195;28;20289;-83
2024/01/03 00:23:51;;;;;;;2.30;0.83;;;8.80;99.90;;;;;;5016711;28;20187;-82
2024/01/03 00:26:17;;;;;;;0.83;0.70;;;8.80;99.90;;;;;;5008065;28;20318;-82
2024/01/03 00:28:43;;;;;;;0.67;0.50;;;8.90;99.90;;;;;;5004867;28;20199;-83
2024/01/03 00:31:38;;;;;;;1.40;0.67;;;8.80;99.90;;;;;;5014813;28;20206;-83
2024/01/03 00:34:23;;;;;;;2.10;0.80;;;8.80;99.90;;;;;;5013260;28;20186;-82
2024/01/03 00:36:53;;;;;;;0.70;0.70;;;8.80;99.90;;;;;;5012787;28;20217;-83
2024/01/03 00:39:25;;;;;;;1.43;0.70;;;8.80;99.90;;;;;;5006488;28;20256;-82
2024/01/03 00:41:51;;;;;;;1.40;0.67;;;8.80;99.90;;;;;;5005267;28;20229;-83
2024/01/03 00:44:16;;;;;;;0.70;0.70;;;8.80;99.90;;;;;;5013226;28;20222;-83
2024/01/03 00:46:42;;;;;;;1.67;0.63;;;8.80;99.90;;;;;;5013336;28;20204;-83
2024/01/03 00:49:08;;;;;;;0.77;0.77;;;8.80;99.90;;;;;;5014595;28;20214;-83
2024/01/03 00:51:34;;;;;;;1.90;0.80;;;8.80;99.90;;;;;;5014615;28;20199;-83
2024/01/03 00:54:00;;;;;;;1.13;0.87;;;8.80;99.90;;;;;;5013183;28;20194;-83
2024/01/03 00:56:27;;;;;;;1.10;0.80;;;8.80;99.90;;;;;;5014275;28;20171;-83
2024/01/03 00:58:53;;;;;;;1.23;0.87;;;8.80;99.90;;;;;;5014422;28;20180;-83
2024/01/03 01:01:19;;;;;;;0.90;0.80;;;8.80;99.90;;;;;;5013084;28;20174;-83
2024/01/03 01:03:45;;;;;;;1.00;0.70;;;8.80;99.90;;;;;;5013205;28;20232;-83
2024/01/03 01:06:11;;;;;;;2.27;0.80;;;8.80;99.90;;;;;;5013002;28;20171;-83
2024/01/03 01:08:36;;;;;;;0.60;0.60;;;8.70;99.90;;;;;;5013035;28;20210;-83
2024/01/03 01:11:02;;;;;;;1.23;0.70;;;8.70;99.90;;;;;;5012884;28;20181;-83
2024/01/03 01:13:27;;;;;;;0.87;0.80;;;8.70;99.90;;;;;;5012754;28;20174;-82
2024/01/03 01:15:53;;;;;;;1.87;0.70;;;8.70;99.90;;;;;;5014351;28;20576;-83
2024/01/03 01:18:18;;;;;;;0.60;0.60;;;8.70;99.90;;;;;;5012847;28;20230;-82
2024/01/03 01:20:44;;;;;;;0.90;0.83;;;8.70;99.90;;;;;;5012525;28;20178;-82
2024/01/03 01:23:09;;;;;;;1.07;0.40;;;8.70;99.90;;;;;;5014520;28;20219;-81
2024/01/03 01:25:35;;;;;;;1.10;0.60;;;8.70;99.90;;;;;;5014466;28;20202;-82
2024/01/03 01:28:01;;;;;;;0.80;0.70;;;8.70;99.90;;;;;;5014131;28;20221;-80
2024/01/03 01:30:26;;;;;;;0.50;0.40;;;8.70;99.90;;;;;;5012686;28;20173;-82
2024/01/03 01:32:52;;;;;;;0.83;0.63;;;8.70;99.90;;;;;;5011990;28;20178;-83
2024/01/03 01:35:18;;;;;;;1.67;0.80;;;8.70;99.90;;;;;;5012510;28;20312;-84
2024/01/03 01:37:43;;;;;;;1.27;0.57;;;8.70;99.90;;;;;;5013087;28;20257;-83
2024/01/03 01:40:10;;;;;;;2.30;0.60;;;8.60;99.90;;;;;;5012086;28;20556;-83
2024/01/03 01:42:36;;;;;;;1.93;0.80;;;8.60;99.90;;;;;;5013972;28;20267;-83
2024/01/03 01:45:02;;;;;;;1.90;0.80;;;8.60;99.90;;;;;;5013874;28;20296;-83
2024/01/03 01:47:29;;;;;;;1.47;0.70;;;8.60;99.90;;;;;;5011510;28;20281;-83
2024/01/03 01:49:54;;;;;;;0.97;0.70;;;8.60;99.90;;;;;;5011739;28;20174;-83
2024/01/03 01:52:21;;;;;;;1.10;0.80;;;8.60;99.90;;;;;;5012071;28;20181;-83
2024/01/03 01:54:48;;;;;;;2.10;0.70;;;8.60;99.90;;;;;;5012169;28;20658;-83
2024/01/03 01:57:14;;;;;;;1.30;0.60;;;8.60;99.90;;;;;;5011763;28;20676;-83
2024/01/03 01:59:41;;;;;;;1.70;0.87;;;8.60;99.90;;;;;;5013286;28;20186;-83
2024/01/03 02:02:07;;;;;;;1.57;0.70;;;8.50;99.90;;;;;;5011934;28;20173;-85
2024/01/03 02:04:36;;;;;;;2.20;0.80;;;8.50;99.90;;;;;;5011674;28;20201;-83
2024/01/03 02:07:03;;;;;;;2.57;0.90;;;8.50;99.90;;;;;;5012108;28;20276;-83
2024/01/03 02:09:29;;;;;;;2.53;0.80;;;8.50;99.90;;;;;;5011720;28;20182;-84
2024/01/03 02:11:54;;;;;;;0.57;0.53;;;8.40;99.90;;;;;;5011979;28;20184;-83
2024/01/03 02:14:20;;;;;;;0.40;0.20;;;8.30;99.90;;;;;;5004745;28;20232;-82
2024/01/03 02:16:45;;;;;;;0.30;0.30;;;8.30;99.90;;;;;;5012991;28;20317;-83
2024/01/03 02:19:11;;;;;;;0.10;0.10;;;8.30;99.90;;;;;;5012912;28;20193;-83
2024/01/03 02:21:36;;;;;;;0.20;0.20;;;8.30;99.90;;;;;;5004226;28;20183;-83
2024/01/03 02:24:02;;;;;;;1.90;0.27;;;8.20;99.90;;;;;;5005282;28;20249;-83
2024/01/03 02:26:28;;;;;;;0.70;0.50;;;8.10;99.90;;;;;;5011497;28;20201;-83
2024/01/03 02:28:53;;;;;;;0.50;0.50;;;8.10;99.90;;;;;;5011999;28;20185;-83
2024/01/03 02:31:19;;;;;;;2.07;0.70;;;8.10;99.90;;;;;;5012416;28;20593;-83
2024/01/03 02:33:44;;;;;;;1.20;0.60;;;8.00;99.90;;;;;;5012148;28;20562;-82
2024/01/03 02:36:10;;;;;;;0.80;0.70;;;8.00;99.90;;;;;;5011922;28;20186;-80
2024/01/03 02:38:35;;;;;;;0.97;0.70;;;8.00;99.90;;;;;;5013435;28;20248;-82
2024/01/03 02:41:01;;;;;;;0.80;0.60;;;8.00;99.90;;;;;;5011334;28;20195;-83
2024/01/03 02:43:29;;;;;;;1.50;0.60;;;8.00;99.90;;;;;;5013097;28;20175;-83
2024/01/03 02:45:54;;;;;;;1.70;0.70;;;8.10;99.90;;;;;;5011222;28;20643;-83
2024/01/03 02:48:20;;;;;;;1.30;0.50;;;8.10;99.90;;;;;;5012613;28;20213;-83
2024/01/03 02:50:48;;;;;;;2.83;0.70;;;8.10;99.90;;;;;;5012525;28;20230;-83
2024/01/03 02:53:15;;;;;;;0.60;0.60;;;8.20;99.90;;;;;;5012500;28;20299;-83
2024/01/03 02:55:40;;;;;;;1.00;0.80;;;8.20;99.90;;;;;;5011466;28;20186;-82
2024/01/03 02:58:06;;;;;;;1.30;0.60;;;8.30;99.90;;;;;;5016486;28;20714;-83
2024/01/03 03:00:32;;;;;;;1.43;0.77;;;8.30;99.90;;;;;;5015594;28;20337;-83
2024/01/03 03:02:57;;;;;;;1.40;0.77;;;8.30;99.90;;;;;;5015229;28;20178;-83
2024/01/03 03:05:23;;;;;;;1.27;0.73;;;8.30;99.90;;;;;;5015455;28;20211;-83
2024/01/03 03:07:48;;;;;;;1.13;0.70;;;8.30;99.90;;;;;;5015055;28;20229;-83
2024/01/03 03:10:15;;;;;;;1.87;1.00;;;8.30;99.90;;;;;;5014949;28;20171;-83
2024/01/03 03:12:40;;;;;;;1.57;0.90;;;8.30;99.90;;;;;;5015221;28;20178;-83
2024/01/03 03:15:06;;;;;;;2.60;0.90;;;8.30;99.90;;;;;;5015072;28;20209;-83
2024/01/03 03:17:32;;;;;;;1.10;0.87;;;8.30;99.90;;;;;;5014742;28;20206;-83
2024/01/03 03:19:57;;;;;;;1.73;0.97;;;8.30;99.90;;;;;;5015970;28;20178;-82
2024/01/03 03:22:23;;;;;;;1.17;0.90;;;8.20;99.90;;;;;;5015268;28;20189;-83
2024/01/03 03:24:49;;;;;;;3.17;1.13;;;8.20;99.90;;;;;;5014699;28;20206;-83
2024/01/03 03:27:14;;;;;;;2.07;0.90;;;8.30;99.90;;;;;;5015972;28;20310;-82
2024/01/03 03:29:40;;;;;;;1.60;1.10;;;8.40;99.90;;;;;;5016180;28;20609;-83
2024/01/03 03:32:06;;;;;;;2.03;1.13;;;8.40;99.90;;;;;;5015995;28;20177;-83
2024/01/03 03:34:31;;;;;;;2.73;1.10;;;8.30;99.90;;;;;;5015599;28;20187;-84
2024/01/03 03:36:57;;;;;;;1.70;0.90;;;8.30;99.90;;;;;;5015557;28;20193;-83
2024/01/03 03:39:22;;;;;;;2.57;0.83;;;8.30;99.90;;;;;;5016299;28;20177;-83
2024/01/03 03:41:48;;;;;;;2.40;0.90;;;8.30;99.90;;;;;;5014647;28;20177;-83
2024/01/03 03:44:13;;;;;;;2.03;0.90;;;8.30;99.90;;;;;;5014500;28;20201;-85
2024/01/03 03:46:39;;;;;;;3.43;0.97;;;8.20;99.90;;;;;;5015744;28;20265;-83
2024/01/03 03:49:05;;;;;;;1.37;0.80;;;8.30;99.90;;;;;;5015538;28;20190;-82
2024/01/03 03:51:31;;;;;;;2.10;0.83;;;8.30;99.90;;;;;;5014348;28;20228;-82
2024/01/03 03:53:57;;;;;;;3.53;1.10;;;8.30;99.90;;;;;;5015554;28;20177;-83
2024/01/03 03:56:28;;;;;;;2.10;0.87;;;8.30;99.90;;;;;;5014465;28;20202;-83
2024/01/03 03:58:55;;;;;;;2.73;0.80;;;8.30;99.90;;;;;;5015569;28;20232;-83
2024/01/03 04:01:21;;;;;;;2.40;0.70;;;8.30;99.90;;;;;;5015667;28;20231;-83
2024/01/03 04:03:46;;;;;;;3.27;1.27;;;8.20;99.90;;;;;;5014118;28;20204;-83
2024/01/03 04:06:13;;;;;;;1.77;0.73;;;8.20;99.90;;;;;;5013978;28;20678;-83
2024/01/03 04:08:46;;;;;;;1.60;0.80;;;8.20;99.90;;;;;;5014635;28;20696;-83
2024/01/03 04:11:12;;;;;;;1.97;0.60;;;8.10;99.90;;;;;;5014677;28;20552;-83
2024/01/03 04:13:40;;;;;;;4.83;1.10;;;8.20;99.90;;;;;;5007124;28;20175;-82
2024/01/03 04:16:10;;;;;;;1.93;0.80;;;8.20;99.90;;;;;;5013140;28;20182;-83
2024/01/03 04:18:36;;;;;;;3.27;0.93;;;8.20;99.90;;;;;;5013492;28;20574;-83
2024/01/03 04:21:05;;;;;;;3.37;1.00;;;8.20;99.90;;;;;;4995484;28;20178;-83
2024/01/03 04:23:34;;;;;;;2.00;0.80;;;8.20;99.90;;;;;;4995303;28;20297;-82
2024/01/03 04:26:00;;;;;;;3.47;1.20;;;8.20;99.90;;;;;;4995500;28;20243;-83
2024/01/03 04:28:25;;;;;;;3.63;1.10;;;8.20;99.90;;;;;;4995523;28;20246;-83
2024/01/03 04:30:51;;;;;;;2.13;1.00;;;8.20;99.90;;;;;;4997476;28;20196;-83
2024/01/03 04:33:16;;;;;;;2.57;1.07;;;8.20;99.90;;;;;;5006292;28;20187;-82
2024/01/03 04:35:42;;;;;;;3.53;1.10;;;8.30;99.90;;;;;;5004181;28;20268;-83
2024/01/03 04:38:08;;;;;;;2.90;1.10;;;8.20;99.90;;;;;;5040595;23;20289;-83
2024/01/03 04:40:33;;;;;;;2.50;1.10;;;8.30;99.90;;;;;;4952439;28;20176;-84
2024/01/03 04:42:59;;;;;;;2.87;1.00;;;8.30;99.90;;;;;;4952989;28;20282;-84
2024/01/03 04:45:25;;;;;;;1.70;1.10;;;8.20;99.90;;;;;;4953053;28;20219;-84
2024/01/03 04:47:51;;;;;;;3.13;1.10;;;8.20;99.90;;;;;;4952037;28;20197;-84
2024/01/03 04:50:17;;;;;;;4.83;1.50;;;8.20;99.90;;;;;;4952805;28;20180;-83
2024/01/03 04:52:43;;;;;;;4.53;1.07;;;8.20;99.90;;;;;;4953068;28;20186;-83
2024/01/03 04:55:09;;;;;;;1.80;1.10;;;8.30;99.90;;;;;;4952851;28;20669;-83
2024/01/03 04:57:35;;;;;;;3.67;1.10;;;8.30;99.90;;;;;;4952668;28;20203;-83
2024/01/03 05:00:01;;;;;;;5.00;1.10;;;8.30;99.90;;;;;;4952880;28;20667;-83
2024/01/03 05:02:27;;;;;;;4.60;1.23;;;8.30;99.90;;;;;;4951607;29;20207;-83
2024/01/03 05:04:52;;;;;;;5.20;1.30;;;8.30;99.90;;;;;;4951549;29;20241;-84
2024/01/03 05:07:18;;;;;;;5.23;1.27;;;8.30;99.90;;;;;;4951612;28;20201;-84
2024/01/03 05:09:44;;;;;;;2.50;0.93;;;8.30;99.90;;;;;;4952623;28;20181;-86
2024/01/03 05:12:10;;;;;;;4.20;1.23;;;8.40;99.90;;;;;;4952649;28;20169;-84
2024/01/03 05:14:36;;;;;;;3.10;1.07;;;8.30;99.90;;;;;;4951781;29;20240;-83
2024/01/03 05:17:02;;;;;;;2.93;1.00;;;8.30;99.90;;;;;;4951333;28;20287;-83
2024/01/03 05:19:27;;;;;;;4.83;0.90;;;8.30;99.90;;;;;;4952740;28;20270;-83
2024/01/03 05:21:53;;;;;;;4.03;0.80;;;8.30;99.90;;;;;;4951140;29;20180;-83
2024/01/03 05:24:19;;;;;;;2.77;1.10;;;8.30;99.90;;;;;;4952283;28;20220;-83
2024/01/03 05:26:45;;;;;;;4.17;1.13;;;8.30;99.90;;;;;;4952804;28;20593;-83
2024/01/03 05:29:11;;;;;;;2.80;1.10;;;8.30;99.90;;;;;;4952711;28;20718;-83
2024/01/03 05:31:36;;;;;;;3.20;1.20;;;8.30;99.90;;;;;;4952561;28;20226;-85
2024/01/03 05:34:03;;;;;;;3.13;0.90;;;8.30;99.90;;;;;;4952580;28;20199;-83
2024/01/03 05:36:29;;;;;;;2.70;0.70;;;8.30;99.90;;;;;;4952129;28;20179;-83
2024/01/03 05:38:54;;;;;;;3.70;1.30;;;8.30;99.90;;;;;;4952189;28;20196;-83
2024/01/03 05:41:20;;;;;;;2.57;0.80;;;8.30;99.90;;;;;;4952006;28;20177;-83
2024/01/03 05:43:45;;;;;;;6.90;1.67;;;8.30;99.90;;;;;;4952667;29;20206;-83
2024/01/03 05:46:11;;;;;;;2.30;1.03;;;8.30;99.90;;;;;;4951128;29;20179;-85
2024/01/03 05:48:37;;;;;;;5.47;1.40;;;8.30;99.90;;;;;;4951057;28;20623;-84
2024/01/03 05:51:02;;;;;;;4.13;1.10;;;8.30;99.90;;;;;;4952238;28;20175;-84
2024/01/03 05:53:28;;;;;;;4.50;1.30;;;8.40;99.90;;;;;;4952054;28;20181;-84
2024/01/03 05:55:54;;;;;;;3.13;1.10;;;8.40;99.90;;;;;;4951922;28;20189;-84
2024/01/03 05:58:19;;;;;;;6.03;1.00;;;8.30;99.90;;;;;;4950722;28;20193;-84
2024/01/03 06:00:45;;;;;;;3.00;1.47;;;8.30;99.90;;;;;;4950616;29;20591;-83
2024/01/03 06:03:10;;;;;;;4.03;1.13;;;8.30;99.90;;;;;;4952297;28;20182;-83
2024/01/03 06:05:36;;;;;;;3.87;1.53;;;8.30;99.90;;;;;;4950593;29;20203;-84
2024/01/03 06:08:02;;;;;;;5.43;1.13;;;8.20;99.90;;;;;;4951795;28;20191;-85
2024/01/03 06:10:27;;;;;;;2.27;1.07;;;8.20;99.90;;;;;;4950391;29;20173;-84
2024/01/03 06:12:53;;;;;;;5.50;1.53;;;8.20;99.90;;;;;;4989677;28;20204;-84
2024/01/03 06:15:18;;;;;;;3.33;0.90;;;8.20;99.90;;;;;;4965148;28;20222;-80
2024/01/03 06:17:44;;;;;;;4.03;1.60;;;8.20;99.90;;;;;;4944494;28;20215;-83
2024/01/03 06:20:09;;;;;;;4.87;1.40;;;8.20;99.90;;;;;;4951591;28;20182;-80
2024/01/03 06:22:35;;;;;;;4.13;1.10;;;8.20;99.90;;;;;;4952393;28;20204;-80
2024/01/03 06:25:00;;;;;;;2.53;1.00;;;8.20;99.90;;;;;;4952643;28;20677;-81
2024/01/03 06:27:26;;;;;;;3.10;1.20;;;8.20;99.90;;;;;;4951604;28;20728;-82
2024/01/03 06:29:51;;;;;;;3.40;1.30;;;8.20;99.90;;;;;;4952779;28;20651;-80
2024/01/03 06:32:17;;;;;;;7.13;1.53;;;8.20;99.90;;;;;;4951997;28;20288;-81
2024/01/03 06:34:43;;;;;;;4.93;1.30;;;8.20;99.90;;;;;;4952653;28;20178;-81
2024/01/03 06:37:08;;;;;;;6.73;1.57;;;8.20;99.90;;;;;;4950602;28;20822;-82
2024/01/03 06:39:34;;;;;;;3.20;1.30;;;8.10;99.90;;;;;;4950550;28;20215;-82
2024/01/03 06:42:00;;;;;;;5.20;1.20;;;8.10;99.90;;;;;;4950646;28;20678;-82
2024/01/03 06:44:26;;;;;;;3.17;1.50;;;8.10;99.90;;;;;;4951760;28;20223;-82
2024/01/03 06:46:51;;;;;;;5.50;1.47;;;8.10;99.90;;;;;;4950210;28;20673;-81
2024/01/03 06:49:17;;;;;;;2.57;1.40;;;8.20;99.90;;;;;;4950379;28;20168;-80
2024/01/03 06:51:44;;;;;;;6.70;1.23;;;8.20;99.90;;;;;;4951377;28;20230;-83
2024/01/03 06:54:09;;;;;;;5.23;1.57;;;8.20;99.90;;;;;;4951414;28;20245;-83
2024/01/03 06:56:35;;;;;;;4.67;1.30;;;8.20;99.90;;;;;;4950122;28;20572;-81
2024/01/03 06:59:00;;;;;;;6.37;1.50;;;8.30;99.90;;;;;;4950133;28;20180;-81
2024/01/03 07:01:26;;;;;;;7.33;1.30;;;8.30;99.90;;;;;;4950139;28;20190;-80
2024/01/03 07:03:52;;;;;;;4.17;1.13;;;8.30;99.90;;;;;;4950352;28;20219;-80
2024/01/03 07:06:17;;;;;;;3.73;1.03;;;8.30;99.90;;;;;;4951273;28;20180;-84
2024/01/03 07:08:43;;;;;;;5.57;1.43;;;8.30;99.90;;;;;;4949968;28;20211;-82
2024/01/03 07:11:09;;;;;;;3.23;1.07;;;8.30;99.90;;;;;;4951370;28;20180;-82
2024/01/03 07:13:35;;;;;;;4.73;1.80;;;8.20;99.90;;;;;;4949914;28;20176;-82
2024/01/03 07:16:00;;;;;;;5.73;1.30;;;8.20;99.90;;;;;;4951213;28;20183;-81
2024/01/03 07:18:26;;;;;;;3.40;1.30;;;8.20;99.90;;;;;;4949843;28;20211;-81
2024/01/03 07:20:52;;;;;;;3.87;1.40;;;8.20;99.90;;;;;;4950952;28;20191;-81
2024/01/03 07:23:17;;;;;;;5.47;1.40;;;8.20;99.90;;;;;;4950342;28;20191;-82
2024/01/03 07:25:43;;;;;;;4.03;1.20;;;8.10;99.90;;;;;;4950986;28;20310;-82
2024/01/03 07:28:08;;;;;;;5.00;1.40;;;8.10;99.90;;;;;;4949694;28;20202;-83
2024/01/03 07:30:35;;;;;;;4.60;1.63;;;8.10;99.90;;;;;;4949413;28;20175;-84
2024/01/03 07:33:01;;;;;;;2.77;1.20;;;8.10;99.90;;;;;;4949548;28;20231;-82
2024/01/03 07:35:26;;;;;;;8.07;1.77;;;8.10;99.90;;;;;;4950735;28;20180;-83
2024/01/03 07:37:52;;;;;;;5.73;1.43;;;8.10;99.90;;;;;;4949339;28;20332;-83
2024/01/03 07:40:17;;;;;;;4.27;1.27;;;8.10;99.90;;;;;;4949379;28;20178;-81
2024/01/03 07:42:43;;;;;;;7.50;1.60;;;8.10;99.90;;;;;;4951072;28;20187;-83
2024/01/03 07:45:09;;;;;;;6.17;1.90;;;8.10;99.90;;;;;;4954441;28;20209;-83
2024/01/03 07:47:34;;;;;;;8.27;2.00;;;8.10;99.90;;;;;;4952652;28;20668;-84
2024/01/03 07:50:00;;;;;;;4.63;1.40;;;8.10;99.90;;;;;;4953779;28;20164;-82
2024/01/03 07:52:26;;;;;;;5.40;1.50;;;8.10;99.90;;;;;;4952694;28;20171;-83
2024/01/03 07:54:52;;;;;;;8.83;1.77;;;8.10;99.90;;;;;;4954457;28;20229;-85
2024/01/03 07:57:17;;;;;;;7.47;1.70;;;8.10;99.90;;;;;;4952977;28;20199;-80
2024/01/03 07:59:45;;;;;;;5.40;1.83;;;8.10;99.90;;;;;;4954535;28;20184;-83
2024/01/03 08:02:12;;;;;;;6.17;1.40;;;8.10;99.90;;;;;;4954763;28;20183;-79
2024/01/03 08:04:38;;;;;;;6.77;1.50;;;8.10;99.90;;;;;;4952758;28;20250;-81
2024/01/03 08:07:04;;;;;;;3.77;1.50;;;8.10;99.90;;;;;;4953760;28;20198;-82
2024/01/03 08:09:30;;;;;;;5.50;1.50;;;8.10;99.90;;;;;;4952786;28;20180;-82
2024/01/03 08:11:55;;;;;;;5.80;1.57;;;8.20;99.90;;;;;;4959162;28;20229;-82
2024/01/03 08:14:21;;;;;;;6.03;1.83;;;8.20;99.90;;;;;;4953874;28;20270;-82
2024/01/03 08:16:46;;;;;;;6.53;1.50;;;8.20;99.90;;;;;;4944499;28;20568;-82
2024/01/03 08:19:12;;;;;;;8.87;1.73;;;8.20;99.90;;;;;;4952516;28;20602;-81
2024/01/03 08:21:38;;;;;;;7.60;1.70;;;8.20;99.90;;;;;;4952400;28;20183;-82
2024/01/03 08:24:03;;;;;;;6.67;1.80;;;8.10;99.90;;;;;;4952616;28;20199;-82
2024/01/03 08:26:29;;;;;;;7.93;1.70;;;8.10;99.90;;;;;;4952473;28;20201;-82
2024/01/03 08:28:55;;;;;;;2.93;1.50;;;8.20;99.90;;;;;;4952465;28;20172;-82
2024/01/03 08:31:20;;;;;;;4.50;1.40;;;8.10;99.90;;;;;;4953528;28;20180;-82
2024/01/03 08:33:46;;;;;;;5.33;1.40;;;8.20;99.90;;;;;;4952398;28;20180;-84
2024/01/03 08:36:14;;;;;;;5.80;1.77;;;8.20;99.90;;;;;;4952216;28;20180;-84
2024/01/03 08:38:40;;;;;;;11.03;2.00;;;8.20;99.90;;;;;;4952181;28;20215;-82
2024/01/03 08:41:19;;;;;;;6.00;1.40;;;8.10;99.90;;;;;;4952424;29;20234;-82
2024/01/03 08:43:46;;;;;;;4.77;1.10;;;8.10;99.90;;;;;;4952013;28;20176;-82
2024/01/03 08:46:11;;;;;;;7.43;1.67;;;8.00;99.90;;;;;;4953449;28;20185;-82
2024/01/03 08:48:41;;;;;;;4.13;1.33;;;8.10;99.90;;;;;;4952206;28;20202;-82
2024/01/03 08:51:13;;;;;;;1.93;1.00;;;8.10;99.90;;;;;;4953569;28;20644;-82
2024/01/03 08:53:39;;;;;;;3.47;1.20;;;8.00;99.90;;;;;;4952968;28;20185;-82
2024/01/03 08:56:16;;;;;;;3.87;1.20;;;8.00;99.90;;;;;;4952044;28;20175;-82
2024/01/03 08:58:43;;;;;;;3.97;1.20;;;8.00;99.90;;;;;;4953398;28;20576;-82
2024/01/03 09:01:09;;;;;;;5.83;1.37;;;8.00;99.90;;;;;;4953111;28;20187;-82
2024/01/03 09:03:38;;;;;;;3.57;1.20;;;8.00;99.90;;;;;;4952441;28;20244;-82
2024/01/03 09:06:07;;;;;;;3.87;1.10;;;8.00;99.90;;;;;;4952254;28;20184;-82
2024/01/03 09:08:32;;;;;;;3.07;1.30;;;8.00;99.90;;;;;;4951913;28;20273;-82
2024/01/03 09:10:58;;;;;;;1.90;1.03;;;8.00;99.90;;;;;;4951852;28;20173;-82
2024/01/03 09:13:24;;;;;;;3.50;1.30;;;8.00;99.90;;;;;;4952843;28;20598;-82
2024/01/03 09:15:51;;;;;;;4.40;1.60;;;8.00;99.90;;;;;;4951705;28;20279;-82
2024/01/03 09:18:16;;;;;;;3.43;1.23;;;8.00;99.90;;;;;;4952892;28;20193;-82
2024/01/03 09:20:42;;;;;;;4.60;1.40;;;8.00;99.90;;;;;;4951487;28;20240;-82
2024/01/03 09:23:08;;;;;;;6.13;1.53;;;8.00;99.90;;;;;;4951758;28;20173;-82
2024/01/03 09:25:34;;;;;;;6.23;1.60;;;8.00;99.90;;;;;;4951712;28;20301;-82
2024/01/03 09:27:59;;;;;;;4.17;1.97;;;8.10;99.90;;;;;;4988918;28;20207;-82
2024/01/03 09:30:25;;;;;;;4.50;1.43;;;8.10;99.90;;;;;;4947845;29;20177;-82
2024/01/03 09:32:51;;;;;;;4.07;1.50;;;8.10;99.90;;;;;;4951503;28;20210;-82
2024/01/03 09:35:16;;;;;;;3.77;1.10;;;8.10;99.90;;;;;;4951587;28;20188;-82
2024/01/03 09:37:42;;;;;;;5.33;1.03;;;8.20;99.90;;;;;;4952829;28;20239;-82
2024/01/03 09:40:10;;;;;;;2.90;0.90;;;8.20;99.90;;;;;;4952456;28;20184;-82
2024/01/03 09:42:36;;;;;;;2.40;1.07;;;8.20;99.90;;;;;;4951384;28;20267;-83
2024/01/03 09:45:02;;;;;;;4.20;1.30;;;8.10;99.90;;;;;;4952402;28;20204;-82
2024/01/03 09:47:28;;;;;;;3.00;1.50;;;8.10;99.90;;;;;;4952415;28;20203;-82
2024/01/03 09:49:54;;;;;;;4.13;1.50;;;8.10;99.90;;;;;;4948058;28;20213;-81
2024/01/03 09:52:19;;;;;;;3.80;1.73;;;8.20;99.90;;;;;;4944632;28;20258;-82
2024/01/03 09:54:46;;;;;;;3.87;2.10;;;8.10;99.90;;;;;;4952186;28;20273;-82
2024/01/03 09:57:12;;;;;;;2.50;1.33;;;8.10;99.90;;;;;;4952016;28;20211;-82
2024/01/03 09:59:38;;;;;;;3.97;1.23;;;8.20;99.90;;;;;;4950986;28;20200;-82
2024/01/03 10:02:06;;;;;;;4.87;1.30;;;8.20;99.90;;;;;;4943709;29;20200;-82
2024/01/03 10:04:33;;;;;;;3.03;1.23;;;8.20;99.90;;;;;;4941184;28;20197;-82
2024/01/03 10:06:59;;;;;;;2.20;1.10;;;8.30;99.90;;;;;;4950070;28;20684;-82
2024/01/03 10:09:38;;;;;;;2.23;1.00;;;8.40;99.90;;;;;;4950752;28;20185;-84
2024/01/03 10:12:15;;;;;;;5.37;1.40;;;8.50;99.90;;;;;;4943207;29;20231;-82
2024/01/03 10:14:41;;;;;;;3.73;1.10;;;8.50;99.90;;;;;;4959987;28;20180;-82
2024/01/03 10:17:10;;;;;;;4.00;1.20;;;8.60;99.90;;;;;;4958426;28;20200;-84
2024/01/03 10:19:36;;;;;;;3.07;1.10;;;8.60;99.90;;;;;;4947681;29;20184;-81
2024/01/03 10:22:02;;;;;;;4.87;1.27;;;8.60;99.90;;;;;;4950759;28;20200;-82
2024/01/03 10:24:28;;;;;;;1.87;0.93;;;8.60;99.90;;;;;;4951769;29;20201;-82
2024/01/03 10:27:08;;;;;;;4.40;1.00;;;8.60;99.90;;;;;;4950447;28;20315;-82
2024/01/03 10:29:34;;;;;;;2.93;1.40;;;8.60;99.90;;;;;;4952141;28;20257;-82
2024/01/03 10:32:00;;;;;;;4.30;1.53;;;8.60;99.90;;;;;;4951981;28;20178;-81
2024/01/03 10:34:26;;;;;;;1.03;0.90;;;8.70;99.90;;;;;;4951936;28;20180;-82
2024/01/03 10:39:19;;;;;;;3.00;1.60;;;8.70;99.90;;;;;;5051052;22;20268;-81
2024/01/03 10:41:47;;;;;;;3.63;1.47;;;8.60;99.90;;;;;;5033600;28;20170;-82
2024/01/03 10:44:17;;;;;;;2.20;1.17;;;8.60;99.90;;;;;;5032785;28;20232;-81
2024/01/03 10:46:47;;;;;;;3.23;1.30;;;8.60;99.90;;;;;;5031191;28;20185;-81
2024/01/03 10:49:15;;;;;;;1.83;0.90;;;8.50;99.90;;;;;;5025810;28;20534;-81
2024/01/03 10:51:43;;;;;;;4.97;1.20;;;8.40;99.90;;;;;;5031809;28;20256;-81
2024/01/03 10:54:14;;;;;;;4.13;1.00;;;8.50;99.90;;;;;;5028748;28;20637;-81
2024/01/03 10:56:45;;;;;;;3.63;1.10;;;8.40;99.90;;;;;;5032155;28;20181;-80
2024/01/03 10:59:11;;;;;;;1.77;1.10;;;8.50;99.90;;;;;;5034074;28;20208;-81
2024/01/03 11:01:45;;;;;;;1.33;1.00;;;8.50;99.90;;;;;;5033521;28;20184;-81
2024/01/03 11:04:57;;;;;;;1.90;1.07;;;8.50;99.90;;;;;;5033558;28;20218;-81
2024/01/03 11:07:37;;;;;;;5.00;1.73;;;8.50;99.90;;;;;;4972697;28;20216;-81
2024/01/03 11:10:02;;;;;;;1.60;1.10;;;8.60;99.90;;;;;;5029967;28;20181;-81
2024/01/03 11:12:29;;;;;;;2.97;1.30;;;8.60;99.90;;;;;;5032105;28;20178;-81
2024/01/03 11:14:54;;;;;;;2.10;1.50;;;8.70;99.90;;;;;;5033138;28;20555;-81
2024/01/03 11:17:36;;;;;;;3.33;1.50;;;8.80;99.90;;;;;;5033771;28;20200;-81
2024/01/03 11:20:05;;;;;;;3.30;1.80;;;8.90;99.90;;;;;;5036683;28;20258;-81
2024/01/03 11:23:04;;;;;;;2.07;1.33;;;9.10;99.90;;;;;;5035884;28;20235;-80
2024/01/03 11:25:49;;;;;;;4.57;1.47;;;9.20;99.90;;;;;;5037650;28;20198;-81
2024/01/03 11:28:36;;;;;;;2.00;1.10;;;9.30;99.90;;;;;;5036923;28;20754;-79
2024/01/03 11:31:02;;;;;;;3.73;1.13;;;9.30;99.90;;;;;;5028633;28;20174;-82
2024/01/03 11:33:30;;;;;;;2.53;1.20;;;9.30;99.90;;;;;;5038462;28;20167;-79
2024/01/03 11:35:56;;;;;;;1.63;1.17;;;9.30;99.90;;;;;;5037123;28;20178;-82
2024/01/03 11:38:41;;;;;;;2.10;1.10;;;9.40;99.90;;;;;;5035015;28;20221;-81
2024/01/03 11:41:11;;;;;;;4.33;1.30;;;9.50;99.90;;;;;;5034147;28;20224;-81
2024/01/03 11:43:36;;;;;;;3.23;1.00;;;9.70;99.90;;;;;;5034818;28;20201;-81
2024/01/03 11:46:12;;;;;;;3.43;1.07;;;9.60;99.90;;;;;;5035866;28;20244;-80
2024/01/03 11:48:38;;;;;;;3.30;1.10;;;9.70;99.90;;;;;;5035832;28;20190;-81
2024/01/03 11:51:22;;;;;;;2.67;1.23;;;9.70;99.90;;;;;;5035678;28;20174;-80
2024/01/03 11:53:48;;;;;;;5.70;1.80;;;9.80;99.90;;;;;;5035597;28;20201;-82
2024/01/03 11:56:28;;;;;;;4.83;1.60;;;9.80;99.90;;;;;;5035396;28;20166;-82
2024/01/03 11:58:57;;;;;;;3.27;1.30;;;9.60;99.90;;;;;;5037074;28;20247;-82
2024/01/03 12:01:23;;;;;;;4.20;1.43;;;9.40;99.90;;;;;;5034163;28;20182;-86
2024/01/03 12:03:49;;;;;;;3.60;1.10;;;9.30;99.90;;;;;;5035148;28;20171;-87
2024/01/03 12:06:19;;;;;;;2.80;1.00;;;9.30;99.90;;;;;;5034996;28;20650;-87
2024/01/03 12:08:45;;;;;;;3.43;1.07;;;9.30;99.90;;;;;;5033355;28;20201;-88
2024/01/03 12:11:11;;;;;;;1.90;1.03;;;9.20;99.90;;;;;;5033330;28;20178;-88
2024/01/03 12:13:38;;;;;;;3.37;1.10;;;9.20;99.90;;;;;;5034601;28;20181;-88
2024/01/03 12:16:04;;;;;;;1.27;0.93;;;9.20;99.90;;;;;;5034480;28;20174;-87
2024/01/03 12:18:31;;;;;;;4.63;1.73;;;9.10;99.90;;;;;;5033300;28;20194;-87
2024/01/03 12:20:57;;;;;;;1.97;1.00;;;9.00;99.90;;;;;;5032873;28;20178;-90
2024/01/03 12:23:22;;;;;;;3.07;1.30;;;9.00;99.90;;;;;;5033050;28;20200;-90
2024/01/03 12:25:48;;;;;;;1.53;1.10;;;8.90;99.90;;;;;;5034326;28;20206;-90
2024/01/03 12:28:20;;;;;;;3.40;1.53;;;8.90;99.90;;;;;;5034229;28;20284;-91
2024/01/03 12:30:45;;;;;;;2.57;1.17;;;8.80;99.90;;;;;;5033441;28;20180;-90
2024/01/03 12:33:13;;;;;;;4.87;1.60;;;8.70;99.90;;;;;;5032924;28;20173;-91
2024/01/03 12:35:39;;;;;;;3.70;1.00;;;8.70;99.90;;;;;;5034353;28;20194;-90
2024/01/03 12:38:05;;;;;;;2.80;1.10;;;8.60;99.90;;;;;;5032668;28;20277;-90
2024/01/03 12:40:31;;;;;;;4.93;1.90;;;8.60;99.90;;;;;;5032577;28;20188;-90
2024/01/03 12:42:57;;;;;;;6.07;1.67;;;8.60;99.90;;;;;;5034050;28;20188;-90
2024/01/03 12:45:22;;;;;;;4.40;3.60;;;8.50;99.90;;;;;;5032923;28;20201;-91
2024/01/03 12:47:48;;;;;;;3.57;1.53;;;8.40;99.90;;;;;;5032686;28;20661;-90
2024/01/03 12:50:13;;;;;;;5.87;1.43;;;8.40;99.90;;;;;;5032339;28;20181;-91
2024/01/03 12:52:39;;;;;;;5.40;1.20;;;8.40;99.90;;;;;;5031851;28;20186;-91
2024/01/03 12:55:06;;;;;;;3.43;1.60;;;8.40;99.90;;;;;;5032319;28;20185;-87
2024/01/03 12:57:32;;;;;;;5.03;1.60;;;8.50;99.90;;;;;;5032513;28;20221;-86
2024/01/03 12:59:58;;;;;;;4.23;1.27;;;8.50;99.90;;;;;;5032101;28;20181;-86